createdAt,value
2022-10-07T00:00:56.398Z,2.00
2022-10-07T00:03:25.869Z,0.47
2022-10-07T00:06:11.304Z,0.30
2022-10-07T00:08:39.567Z,0.45
2022-10-07T00:11:09.452Z,0.75
2022-10-07T00:13:39.032Z,0.60
2022-10-07T00:16:11.280Z,1.65
2022-10-07T00:18:39.862Z,1.38
2022-10-07T00:21:09.672Z,0.45
2022-10-07T00:23:36.596Z,0.30
2022-10-07T00:26:06.581Z,0.30
2022-10-07T00:28:34.369Z,1.55
2022-10-07T00:31:04.665Z,0.20
2022-10-07T00:33:33.588Z,0.30
2022-10-07T00:36:00.425Z,0.20
2022-10-07T00:38:27.270Z,0.65
2022-10-07T00:40:54.004Z,0.32
2022-10-07T00:43:29.642Z,0.30
2022-10-07T00:46:01.547Z,0.63
2022-10-07T00:48:31.103Z,0.32
2022-10-07T00:51:00.398Z,0.40
2022-10-07T00:53:30.922Z,0.55
2022-10-07T00:56:01.662Z,0.40
2022-10-07T00:58:31.605Z,0.20
2022-10-07T01:00:58.861Z,1.42
2022-10-07T01:03:25.818Z,1.25
2022-10-07T01:05:52.562Z,0.50
2022-10-07T01:08:20.703Z,0.35
2022-10-07T01:11:17.039Z,0.30
2022-10-07T01:14:18.281Z,0.30
2022-10-07T01:17:15.903Z,0.40
2022-10-07T01:19:54.224Z,0.20
2022-10-07T01:22:41.821Z,0.20
2022-10-07T01:25:27.761Z,0.60
2022-10-07T01:28:16.621Z,0.20
2022-10-07T01:30:49.853Z,0.20
2022-10-07T01:33:21.093Z,0.25
2022-10-07T01:35:50.721Z,0.40
2022-10-07T01:38:22.409Z,0.20
2022-10-07T01:40:54.710Z,0.68
2022-10-07T01:43:23.196Z,0.25
2022-10-07T01:45:53.539Z,0.38
2022-10-07T01:48:20.551Z,0.20
2022-10-07T01:50:49.217Z,0.75
2022-10-07T01:53:32.741Z,0.20
2022-10-07T01:56:08.471Z,0.38
2022-10-07T01:58:55.979Z,0.22
2022-10-07T02:01:48.829Z,0.40
2022-10-07T02:04:37.624Z,0.40
2022-10-07T02:07:04.303Z,0.20
2022-10-07T02:09:41.355Z,0.30
2022-10-07T02:12:18.085Z,0.40
2022-10-07T02:15:06.077Z,0.30
2022-10-07T02:17:35.498Z,0.30
2022-10-07T02:20:05.439Z,0.30
2022-10-07T02:22:35.271Z,0.25
2022-10-07T02:25:02.249Z,0.45
2022-10-07T02:27:37.110Z,0.38
2022-10-07T02:30:11.222Z,0.73
2022-10-07T02:32:42.406Z,0.30
2022-10-07T02:35:23.240Z,0.43
2022-10-07T02:37:54.413Z,0.25
2022-10-07T02:40:25.017Z,0.20
2022-10-07T02:43:04.582Z,0.30
2022-10-07T02:45:51.730Z,0.40
2022-10-07T02:48:33.210Z,1.55
2022-10-07T02:51:03.980Z,0.30
2022-10-07T02:53:32.819Z,0.32
2022-10-07T02:56:01.587Z,0.50
2022-10-07T02:58:28.578Z,0.17
2022-10-07T03:01:00.160Z,0.75
2022-10-07T03:03:27.758Z,0.20
2022-10-07T03:05:55.940Z,0.20
2022-10-07T03:08:23.146Z,0.40
2022-10-07T03:10:49.915Z,0.20
2022-10-07T03:13:16.885Z,0.40
2022-10-07T03:15:43.708Z,0.30
2022-10-07T03:18:26.265Z,0.38
2022-10-07T03:20:55.459Z,0.52
2022-10-07T03:23:26.071Z,0.30
2022-10-07T03:25:54.416Z,0.60
2022-10-07T03:28:23.437Z,0.20
2022-10-07T03:30:51.504Z,0.30
2022-10-07T03:33:20.021Z,0.47
2022-10-07T03:35:46.811Z,0.40
2022-10-07T03:38:13.543Z,0.40
2022-10-07T03:40:43.515Z,0.22
2022-10-07T03:43:10.345Z,0.30
2022-10-07T03:45:44.334Z,0.60
2022-10-07T03:48:11.238Z,0.20
2022-10-07T03:50:38.206Z,0.30
2022-10-07T03:53:05.198Z,0.25
2022-10-07T03:55:32.221Z,0.38
2022-10-07T03:57:59.806Z,0.30
2022-10-07T04:00:27.689Z,0.68
2022-10-07T04:02:54.570Z,0.80
2022-10-07T04:05:22.013Z,0.40
2022-10-07T04:07:50.269Z,0.25
2022-10-07T04:10:18.591Z,0.20
2022-10-07T04:12:48.062Z,0.20
2022-10-07T04:15:15.213Z,0.60
2022-10-07T04:17:42.699Z,0.50
2022-10-07T04:20:10.856Z,0.20
2022-10-07T04:22:38.044Z,0.28
2022-10-07T04:25:33.096Z,0.20
2022-10-07T04:28:02.219Z,0.25
2022-10-07T04:30:33.840Z,0.57
2022-10-07T04:33:04.248Z,0.38
2022-10-07T04:35:31.191Z,1.63
2022-10-07T04:37:58.715Z,0.40
2022-10-07T04:40:25.565Z,0.22
2022-10-07T04:43:11.189Z,0.45
2022-10-07T04:45:38.379Z,0.40
2022-10-07T04:48:06.105Z,0.30
2022-10-07T04:50:39.606Z,0.20
2022-10-07T04:53:07.882Z,0.20
2022-10-07T04:55:43.878Z,0.20
2022-10-07T04:58:11.046Z,0.20
2022-10-07T05:00:45.904Z,0.13
2022-10-07T05:03:14.416Z,0.20
2022-10-07T05:05:43.709Z,0.20
2022-10-07T05:08:11.264Z,0.40
2022-10-07T05:10:39.789Z,0.80
2022-10-07T05:13:14.929Z,0.20
2022-10-07T05:15:53.085Z,0.30
2022-10-07T05:18:20.986Z,3.83
2022-10-07T05:20:48.888Z,0.30
2022-10-07T05:23:17.259Z,0.20
2022-10-07T05:25:44.378Z,0.40
2022-10-07T05:28:12.663Z,0.15
2022-10-07T05:30:39.466Z,0.20
2022-10-07T05:33:06.908Z,0.30
2022-10-07T05:35:34.057Z,0.80
2022-10-07T05:38:01.619Z,0.50
2022-10-07T05:40:29.006Z,0.50
2022-10-07T05:42:55.984Z,0.80
2022-10-07T05:45:22.834Z,0.57
2022-10-07T05:47:49.615Z,0.40
2022-10-07T05:50:16.425Z,0.95
2022-10-07T05:52:45.302Z,0.20
2022-10-07T05:55:12.384Z,0.30
2022-10-07T05:57:40.142Z,0.32
2022-10-07T06:00:08.006Z,0.30
2022-10-07T06:02:35.034Z,0.40
2022-10-07T06:05:01.925Z,0.15
2022-10-07T06:07:29.652Z,0.20
2022-10-07T06:10:14.782Z,0.60
2022-10-07T06:13:00.361Z,0.25
2022-10-07T06:15:27.193Z,0.20
2022-10-07T06:17:53.941Z,0.28
2022-10-07T06:20:20.741Z,0.30
2022-10-07T06:22:47.465Z,0.22
2022-10-07T06:25:14.297Z,0.20
2022-10-07T06:27:41.076Z,0.63
2022-10-07T06:30:08.753Z,0.20
2022-10-07T06:32:35.500Z,0.30
2022-10-07T06:35:02.285Z,0.75
2022-10-07T06:37:32.525Z,0.30
2022-10-07T06:39:59.870Z,0.20
2022-10-07T06:42:27.029Z,1.38
2022-10-07T06:44:53.989Z,0.22
2022-10-07T06:47:21.711Z,0.30
2022-10-07T06:49:48.666Z,0.20
2022-10-07T06:52:15.640Z,0.20
2022-10-07T06:54:42.654Z,0.20
2022-10-07T06:57:32.978Z,0.20
2022-10-07T06:59:56.742Z,0.55
2022-10-07T07:02:25.664Z,0.20
2022-10-07T07:04:57.649Z,0.40
2022-10-07T07:07:25.105Z,0.55
2022-10-07T07:09:52.209Z,0.30
2022-10-07T07:12:18.979Z,0.30
2022-10-07T07:14:45.869Z,0.47
2022-10-07T07:17:12.712Z,0.20
2022-10-07T07:19:39.470Z,0.17
2022-10-07T07:22:06.974Z,0.30
2022-10-07T07:24:33.762Z,0.40
2022-10-07T07:27:00.865Z,0.20
2022-10-07T07:29:27.612Z,0.30
2022-10-07T07:31:54.403Z,0.32
2022-10-07T07:34:21.174Z,0.45
2022-10-07T07:36:53.501Z,0.20
2022-10-07T07:39:20.963Z,0.30
2022-10-07T07:41:48.377Z,0.50
2022-10-07T07:44:17.638Z,0.50
2022-10-07T07:46:51.390Z,0.40
2022-10-07T07:49:19.508Z,0.98
2022-10-07T07:51:46.689Z,1.05
2022-10-07T07:54:14.133Z,0.52
2022-10-07T07:56:41.718Z,0.32
2022-10-07T07:59:08.711Z,0.45
2022-10-07T08:01:36.021Z,0.30
2022-10-07T08:04:04.163Z,0.80
2022-10-07T08:06:31.578Z,0.52
2022-10-07T08:08:59.352Z,0.90
2022-10-07T08:11:27.302Z,0.85
2022-10-07T08:13:56.235Z,0.30
2022-10-07T08:16:25.256Z,0.50
2022-10-07T08:18:53.134Z,0.20
2022-10-07T08:21:22.321Z,0.40
2022-10-07T08:23:53.345Z,0.43
2022-10-07T08:26:20.114Z,1.23
2022-10-07T08:28:49.091Z,0.50
2022-10-07T08:31:18.392Z,0.40
2022-10-07T08:33:47.879Z,0.63
2022-10-07T08:36:17.567Z,0.30
2022-10-07T08:38:49.799Z,0.47
2022-10-07T08:41:25.901Z,0.30
2022-10-07T08:43:52.892Z,1.88
2022-10-07T08:46:25.219Z,0.70
2022-10-07T08:49:06.153Z,1.75
2022-10-07T08:51:57.296Z,0.63
2022-10-07T08:54:30.824Z,0.47
2022-10-07T08:57:05.920Z,0.80
2022-10-07T08:59:34.764Z,0.70
2022-10-07T09:02:24.358Z,0.30
2022-10-07T09:05:15.732Z,0.52
2022-10-07T09:07:48.194Z,0.50
2022-10-07T09:10:24.886Z,0.55
2022-10-07T09:12:58.776Z,0.73
2022-10-07T09:15:34.721Z,0.77
2022-10-07T09:18:19.788Z,0.70
2022-10-07T09:20:53.448Z,0.40
2022-10-07T09:23:28.696Z,0.50
2022-10-07T09:25:55.690Z,0.95
2022-10-07T09:28:33.229Z,1.65
2022-10-07T09:31:01.062Z,1.23
2022-10-07T09:33:29.859Z,1.00
2022-10-07T09:36:07.928Z,0.50
2022-10-07T09:38:42.564Z,0.88
2022-10-07T09:41:17.967Z,1.10
2022-10-07T09:43:58.360Z,1.27
2022-10-07T09:46:48.186Z,1.08
2022-10-07T09:49:26.963Z,1.83
2022-10-07T09:52:16.413Z,2.88
2022-10-07T09:54:48.627Z,1.35
2022-10-07T09:57:23.489Z,1.08
2022-10-07T09:59:50.292Z,1.45
2022-10-07T10:02:24.171Z,1.98
2022-10-07T10:04:56.882Z,2.97
2022-10-07T10:07:33.357Z,2.42
2022-10-07T10:10:25.240Z,4.13
2022-10-07T10:12:54.654Z,0.98
2022-10-07T10:15:39.553Z,0.98
2022-10-07T10:18:25.179Z,0.85
2022-10-07T10:20:52.048Z,1.13
2022-10-07T10:23:38.240Z,2.00
2022-10-07T10:26:31.134Z,3.80
2022-10-07T10:29:12.334Z,1.45
2022-10-07T10:31:42.073Z,1.80
2022-10-07T10:34:21.069Z,2.25
2022-10-07T10:37:00.448Z,1.80
2022-10-07T10:39:45.226Z,1.85
2022-10-07T10:42:21.511Z,2.40
2022-10-07T10:45:02.545Z,1.02
2022-10-07T10:47:44.771Z,1.70
2022-10-07T10:50:24.786Z,0.90
2022-10-07T10:53:12.464Z,0.88
2022-10-07T10:56:10.148Z,1.20
2022-10-07T10:59:10.110Z,1.08
2022-10-07T11:01:38.112Z,2.03
2022-10-07T11:04:42.145Z,0.85
2022-10-07T11:07:39.140Z,0.95
2022-10-07T11:10:17.097Z,1.88
2022-10-07T11:12:59.139Z,0.70
2022-10-07T11:15:32.777Z,0.60
2022-10-07T11:18:05.727Z,0.85
2022-10-07T11:20:37.323Z,1.55
2022-10-07T11:23:29.031Z,1.42
2022-10-07T11:26:10.308Z,0.68
2022-10-07T11:28:41.570Z,0.65
2022-10-07T11:31:11.269Z,0.63
2022-10-07T11:34:08.404Z,1.50
2022-10-07T11:36:56.882Z,1.30
2022-10-07T11:39:24.278Z,0.98
2022-10-07T11:42:02.943Z,0.90
2022-10-07T11:44:37.117Z,0.57
2022-10-07T11:47:11.207Z,0.65
2022-10-07T11:49:47.125Z,1.98
2022-10-07T11:52:24.810Z,0.73
2022-10-07T11:55:32.022Z,1.13
2022-10-07T11:58:02.158Z,1.67
2022-10-07T12:00:35.367Z,1.85
2022-10-07T12:03:20.331Z,1.25
2022-10-07T12:05:50.153Z,1.33
2022-10-07T12:08:32.028Z,0.50
2022-10-07T12:11:22.676Z,1.67
2022-10-07T12:13:51.588Z,0.82
2022-10-07T12:16:24.413Z,0.60
2022-10-07T12:19:06.438Z,1.20
2022-10-07T12:22:04.321Z,0.70
2022-10-07T12:24:32.012Z,1.33
2022-10-07T12:27:24.893Z,0.55
2022-10-07T12:30:04.724Z,1.95
2022-10-07T12:32:47.030Z,2.30
2022-10-07T12:35:35.247Z,1.55
2022-10-07T12:38:25.204Z,2.05
2022-10-07T12:40:58.649Z,0.65
2022-10-07T12:43:32.333Z,0.88
2022-10-07T12:46:00.785Z,1.08
2022-10-07T12:48:33.746Z,1.77
2022-10-07T12:51:03.615Z,0.40
2022-10-07T12:53:41.537Z,0.57
2022-10-07T12:56:13.254Z,1.63
2022-10-07T12:59:22.671Z,0.75
2022-10-07T13:01:59.314Z,0.88
2022-10-07T13:04:32.217Z,1.38
2022-10-07T13:07:32.352Z,1.73
2022-10-07T13:10:35.132Z,1.10
2022-10-07T13:13:08.901Z,1.17
2022-10-07T13:15:55.843Z,1.77
2022-10-07T13:18:37.337Z,0.45
2022-10-07T13:21:06.885Z,0.55
2022-10-07T13:23:34.537Z,0.77
2022-10-07T13:26:03.486Z,1.40
2022-10-07T13:28:44.113Z,1.63
2022-10-07T13:31:15.869Z,1.10
2022-10-07T13:33:44.541Z,1.60
2022-10-07T13:36:18.909Z,0.95
2022-10-07T13:38:47.741Z,0.40
2022-10-07T13:41:26.268Z,0.85
2022-10-07T13:44:02.517Z,0.77
2022-10-07T13:46:32.409Z,0.70
2022-10-07T13:49:00.226Z,0.65
2022-10-07T13:51:42.906Z,0.20
2022-10-07T13:54:21.334Z,0.30
2022-10-07T13:56:50.553Z,0.70
2022-10-07T13:59:19.296Z,1.23
2022-10-07T14:01:54.383Z,1.67
2022-10-07T14:04:26.830Z,1.17
2022-10-07T14:06:56.117Z,0.85
2022-10-07T14:09:32.223Z,0.70
2022-10-07T14:12:24.911Z,0.75
2022-10-07T14:15:00.767Z,1.83
2022-10-07T14:17:30.651Z,0.52
2022-10-07T14:20:01.577Z,0.50
2022-10-07T14:22:41.172Z,1.10
2022-10-07T14:25:18.969Z,0.77
2022-10-07T14:27:58.376Z,0.57
2022-10-07T14:30:25.517Z,0.30
2022-10-07T14:33:25.056Z,1.00
2022-10-07T14:36:15.514Z,0.93
2022-10-07T14:38:44.141Z,0.77
2022-10-07T14:41:11.418Z,1.30
2022-10-07T14:43:40.291Z,1.15
2022-10-07T14:46:09.326Z,0.73
2022-10-07T14:48:36.187Z,1.58
2022-10-07T14:51:03.230Z,1.90
2022-10-07T14:53:30.270Z,1.00
2022-10-07T14:55:57.424Z,1.48
2022-10-07T14:58:24.687Z,2.20
2022-10-07T15:00:52.224Z,1.90
2022-10-07T15:03:19.105Z,1.40
2022-10-07T15:05:47.284Z,1.27
2022-10-07T15:08:14.638Z,1.15
2022-10-07T15:10:41.407Z,0.80
2022-10-07T15:13:13.244Z,1.23
2022-10-07T15:15:44.955Z,0.50
2022-10-07T15:18:11.791Z,1.70
2022-10-07T15:20:39.701Z,0.93
2022-10-07T15:23:07.925Z,0.88
2022-10-07T15:25:35.851Z,0.70
2022-10-07T15:28:02.686Z,0.70
2022-10-07T15:30:29.852Z,0.60
2022-10-07T15:32:58.168Z,0.60
2022-10-07T15:35:26.997Z,0.98
2022-10-07T15:37:54.461Z,1.23
2022-10-07T15:40:21.333Z,0.98
2022-10-07T15:42:48.351Z,1.05
2022-10-07T15:45:15.544Z,2.95
2022-10-07T15:47:42.434Z,1.58
2022-10-07T15:50:10.437Z,1.50
2022-10-07T15:52:37.258Z,0.63
2022-10-07T15:55:07.802Z,0.65
2022-10-07T15:57:35.103Z,1.50
2022-10-07T16:00:02.460Z,1.02
2022-10-07T16:02:29.326Z,0.63
2022-10-07T16:04:56.095Z,1.15
2022-10-07T16:07:23.989Z,0.73
2022-10-07T16:09:50.775Z,0.75
2022-10-07T16:12:17.659Z,1.20
2022-10-07T16:14:44.490Z,0.85
2022-10-07T16:17:11.294Z,1.05
2022-10-07T16:19:38.109Z,1.15
2022-10-07T16:22:04.888Z,1.02
2022-10-07T16:24:35.288Z,1.90
2022-10-07T16:27:02.437Z,0.95
2022-10-07T16:29:47.895Z,0.98
2022-10-07T16:32:14.720Z,0.95
2022-10-07T16:34:43.622Z,0.63
2022-10-07T16:37:11.867Z,2.03
2022-10-07T16:39:38.688Z,1.13
2022-10-07T16:42:05.565Z,1.08
2022-10-07T16:44:32.434Z,1.88
2022-10-07T16:46:59.515Z,1.55
2022-10-07T16:49:27.672Z,0.57
2022-10-07T16:51:55.283Z,0.80
2022-10-07T16:54:22.469Z,0.60
2022-10-07T16:56:52.317Z,1.48
2022-10-07T16:59:23.277Z,2.38
2022-10-07T17:01:56.088Z,0.93
2022-10-07T17:04:24.720Z,1.25
2022-10-07T17:06:51.723Z,1.50
2022-10-07T17:09:18.697Z,1.23
2022-10-07T17:11:45.989Z,3.72
2022-10-07T17:14:16.540Z,1.27
2022-10-07T17:16:49.974Z,1.30
2022-10-07T17:19:19.798Z,2.70
2022-10-07T17:21:48.106Z,5.90
2022-10-07T17:24:16.098Z,10.13
2022-10-07T17:26:43.354Z,8.65
2022-10-07T17:29:12.236Z,8.48
2022-10-07T17:31:42.449Z,5.43
2022-10-07T17:34:11.400Z,4.25
2022-10-07T17:36:39.209Z,2.55
2022-10-07T17:39:06.319Z,5.45
2022-10-07T17:41:36.015Z,7.00
2022-10-07T17:44:09.352Z,8.95
2022-10-07T17:46:36.791Z,8.05
2022-10-07T17:49:04.818Z,4.53
2022-10-07T17:51:32.569Z,2.92
2022-10-07T17:54:01.181Z,3.03
2022-10-07T17:56:29.993Z,1.67
2022-10-07T17:58:57.266Z,1.23
2022-10-07T18:01:27.588Z,1.30
2022-10-07T18:04:02.841Z,1.25
2022-10-07T18:06:31.793Z,1.45
2022-10-07T18:08:59.151Z,1.58
2022-10-07T18:11:46.628Z,1.75
2022-10-07T18:14:32.090Z,3.67
2022-10-07T18:16:59.100Z,4.82
2022-10-07T18:19:26.764Z,5.03
2022-10-07T18:21:57.125Z,6.53
2022-10-07T18:24:27.790Z,12.50
2022-10-07T18:26:59.214Z,12.07
2022-10-07T18:29:27.456Z,9.07
2022-10-07T18:31:54.348Z,6.40
2022-10-07T18:34:21.290Z,5.10
2022-10-07T18:36:50.590Z,4.50
2022-10-07T18:39:19.456Z,3.80
2022-10-07T18:41:46.346Z,2.80
2022-10-07T18:44:13.770Z,2.25
2022-10-07T18:46:40.619Z,2.35
2022-10-07T18:49:09.349Z,2.10
2022-10-07T18:51:36.153Z,3.20
2022-10-07T18:54:02.861Z,37.92
2022-10-07T18:56:29.613Z,20.35
2022-10-07T18:58:57.880Z,13.80
2022-10-07T19:01:27.837Z,8.15
2022-10-07T19:04:03.625Z,5.90
2022-10-07T19:06:33.316Z,8.48
2022-10-07T19:09:02.397Z,11.48
2022-10-07T19:11:32.317Z,11.50
2022-10-07T19:14:00.046Z,8.48
2022-10-07T19:16:34.581Z,8.35
2022-10-07T19:19:12.223Z,4.97
2022-10-07T19:21:39.459Z,3.20
2022-10-07T19:24:06.764Z,3.05
2022-10-07T19:26:45.138Z,2.22
2022-10-07T19:29:13.417Z,1.80
2022-10-07T19:31:43.749Z,1.55
2022-10-07T19:34:13.592Z,1.52
2022-10-07T19:36:42.807Z,1.65
2022-10-07T19:39:10.690Z,5.05
2022-10-07T19:41:37.782Z,2.17
2022-10-07T19:44:05.525Z,2.00
2022-10-07T19:46:33.755Z,0.98
2022-10-07T19:49:01.924Z,1.10
2022-10-07T19:51:33.058Z,0.80
2022-10-07T19:54:02.116Z,0.50
2022-10-07T19:56:35.630Z,0.70
2022-10-07T19:59:08.076Z,0.57
2022-10-07T20:01:43.848Z,1.67
2022-10-07T20:04:17.576Z,1.20
2022-10-07T20:06:44.629Z,1.02
2022-10-07T20:09:14.572Z,1.60
2022-10-07T20:11:41.828Z,1.80
2022-10-07T20:14:10.009Z,2.00
2022-10-07T20:16:38.274Z,1.73
2022-10-07T20:19:16.389Z,2.70
2022-10-07T20:21:43.252Z,3.88
2022-10-07T20:24:16.775Z,1.92
2022-10-07T20:26:44.451Z,2.55
2022-10-07T20:29:12.031Z,2.15
2022-10-07T20:31:41.250Z,1.30
2022-10-07T20:34:11.311Z,1.33
2022-10-07T20:36:38.996Z,1.27
2022-10-07T20:39:38.694Z,1.55
2022-10-07T20:42:21.242Z,2.53
2022-10-07T20:44:49.293Z,2.42
2022-10-07T20:47:16.819Z,0.82
2022-10-07T20:49:43.703Z,0.77
2022-10-07T20:52:17.151Z,0.57
2022-10-07T20:54:44.597Z,0.50
2022-10-07T20:57:21.519Z,1.30
2022-10-07T20:59:49.278Z,0.82
2022-10-07T21:02:18.597Z,0.60
2022-10-07T21:04:48.079Z,0.43
2022-10-07T21:07:18.943Z,0.38
2022-10-07T21:09:46.758Z,0.50
2022-10-07T21:12:16.025Z,0.47
2022-10-07T21:14:44.145Z,0.50
2022-10-07T21:17:12.098Z,0.30
2022-10-07T21:19:39.122Z,0.40
2022-10-07T21:22:07.423Z,0.30
2022-10-07T21:24:34.511Z,0.22
2022-10-07T21:27:06.114Z,0.45
2022-10-07T21:29:36.414Z,0.70
2022-10-07T21:32:07.957Z,0.57
2022-10-07T21:34:34.938Z,0.45
2022-10-07T21:37:02.773Z,0.80
2022-10-07T21:39:29.838Z,1.25
2022-10-07T21:41:57.986Z,0.40
2022-10-07T21:44:25.398Z,0.40
2022-10-07T21:46:52.370Z,0.55
2022-10-07T21:49:19.233Z,0.70
2022-10-07T21:51:46.123Z,0.73
2022-10-07T21:54:14.390Z,0.30
2022-10-07T21:56:43.638Z,0.50
2022-10-07T21:59:10.499Z,0.43
2022-10-07T22:01:38.184Z,0.40
2022-10-07T22:04:05.288Z,0.30
2022-10-07T22:06:50.947Z,0.52
2022-10-07T22:09:20.975Z,1.05
2022-10-07T22:11:49.157Z,1.38
2022-10-07T22:14:18.634Z,1.90
2022-10-07T22:16:47.971Z,1.70
2022-10-07T22:19:14.951Z,1.88
2022-10-07T22:21:41.800Z,0.82
2022-10-07T22:24:09.490Z,1.00
2022-10-07T22:26:43.744Z,0.88
2022-10-07T22:29:11.232Z,1.58
2022-10-07T22:31:38.395Z,0.90
2022-10-07T22:34:06.374Z,2.13
2022-10-07T22:36:33.387Z,1.02
2022-10-07T22:39:00.505Z,0.82
2022-10-07T22:41:28.035Z,0.98
2022-10-07T22:43:55.380Z,0.90
2022-10-07T22:46:26.912Z,0.80
2022-10-07T22:48:56.424Z,0.32
2022-10-07T22:51:27.026Z,0.50
2022-10-07T22:53:55.313Z,0.40
2022-10-07T22:56:23.584Z,0.40
2022-10-07T22:58:58.130Z,0.43
2022-10-07T23:01:28.587Z,0.52
2022-10-07T23:03:56.700Z,0.40
2022-10-07T23:06:23.509Z,0.40
2022-10-07T23:08:50.312Z,0.95
2022-10-07T23:11:19.794Z,0.40
2022-10-07T23:13:46.609Z,1.25
2022-10-07T23:16:16.074Z,0.57
2022-10-07T23:18:44.995Z,0.40
2022-10-07T23:21:37.181Z,0.40
2022-10-07T23:24:07.695Z,0.50
2022-10-07T23:26:35.852Z,0.60
2022-10-07T23:29:04.115Z,0.52
2022-10-07T23:31:32.819Z,1.10
2022-10-07T23:34:01.188Z,0.40
2022-10-07T23:36:28.770Z,0.50
2022-10-07T23:38:55.847Z,0.50
2022-10-07T23:41:26.402Z,0.40
2022-10-07T23:43:58.176Z,1.27
2022-10-07T23:46:26.770Z,0.30
2022-10-07T23:48:54.399Z,0.50
2022-10-07T23:51:23.550Z,0.32
2022-10-07T23:53:51.177Z,0.30
2022-10-07T23:56:18.755Z,0.55
2022-10-07T23:58:45.841Z,0.30
